createdAt,value
2017-03-12T00:00:44.949Z,84.78
2017-03-12T00:01:55.156Z,84.59
2017-03-12T00:03:05.305Z,84.59
2017-03-12T00:04:15.874Z,84.78
2017-03-12T00:05:25.212Z,84.98
2017-03-12T00:06:35.349Z,85.26
2017-03-12T00:07:45.503Z,85.07
2017-03-12T00:08:56.063Z,84.98
2017-03-12T00:10:06.226Z,85.45
2017-03-12T00:11:15.547Z,85.36
2017-03-12T00:12:25.694Z,85.36
2017-03-12T00:13:35.437Z,85.83
2017-03-12T00:14:45.204Z,85.64
2017-03-12T00:15:54.933Z,85.17
2017-03-12T00:17:04.672Z,85.26
2017-03-12T00:18:14.812Z,85.93
2017-03-12T00:19:24.942Z,85.55
2017-03-12T00:20:35.532Z,85.64
2017-03-12T00:21:45.827Z,85.55
2017-03-12T00:22:55.961Z,86.11
2017-03-12T00:24:06.523Z,86.3
2017-03-12T00:25:17.092Z,86.02
2017-03-12T00:26:28.088Z,85.93
2017-03-12T00:27:39.203Z,86.59
2017-03-12T00:28:49.356Z,86.4
2017-03-12T00:29:59.524Z,86.4
2017-03-12T00:31:10.100Z,86.68
2017-03-12T00:32:19.869Z,86.87
2017-03-12T00:33:30.274Z,86.49
2017-03-12T00:34:40.460Z,86.78
2017-03-12T00:35:50.622Z,86.68
2017-03-12T00:37:00.405Z,86.87
2017-03-12T00:38:10.577Z,86.49
2017-03-12T00:39:20.742Z,87.25
2017-03-12T00:40:30.897Z,86.3
2017-03-12T00:41:40.237Z,86.68
2017-03-12T00:42:49.994Z,86.68
2017-03-12T00:44:00.189Z,86.68
2017-03-12T00:45:11.052Z,86.49
2017-03-12T00:46:21.615Z,86.93
2017-03-12T00:47:32.163Z,86.97
2017-03-12T00:48:42.730Z,86.68
2017-03-12T00:49:53.292Z,87.21
2017-03-12T00:51:03.849Z,86.87
2017-03-12T00:52:14.418Z,86.97
2017-03-12T00:53:24.562Z,87.4
2017-03-12T00:54:35.114Z,87.45
2017-03-12T00:55:45.674Z,87.25
2017-03-12T00:56:56.395Z,87.02
2017-03-12T00:58:05.721Z,87.21
2017-03-12T00:59:15.457Z,87.3
2017-03-12T01:00:25.597Z,87.4
2017-03-12T01:01:35.745Z,87.21
2017-03-12T01:02:46.052Z,87.68
2017-03-12T01:03:56.199Z,87.77
2017-03-12T01:05:06.375Z,87.68
2017-03-12T01:06:16.116Z,87.87
2017-03-12T01:07:26.671Z,88.16
2017-03-12T01:08:36.574Z,87.87
2017-03-12T01:09:47.536Z,87.97
2017-03-12T01:10:58.099Z,87.87
2017-03-12T01:12:07.841Z,88.06
2017-03-12T01:13:18.389Z,87.77
2017-03-12T01:14:29.075Z,87.68
2017-03-12T01:15:39.235Z,88.16
2017-03-12T01:16:50.200Z,87.97
2017-03-12T01:18:00.362Z,87.77
2017-03-12T01:19:10.931Z,87.87
2017-03-12T01:20:21.095Z,87.87
2017-03-12T01:21:31.255Z,87.59
2017-03-12T01:22:41.821Z,88.06
2017-03-12T01:23:51.975Z,88.35
2017-03-12T01:25:02.530Z,87.68
2017-03-12T01:26:12.423Z,88.06
2017-03-12T01:27:22.155Z,88.06
2017-03-12T01:28:31.902Z,88.06
2017-03-12T01:29:42.874Z,88.16
2017-03-12T01:30:53.019Z,88.25
2017-03-12T01:32:03.736Z,88.25
2017-03-12T01:33:13.877Z,88.44
2017-03-12T01:34:24.031Z,88.54
2017-03-12T01:35:34.181Z,88.25
2017-03-12T01:36:44.348Z,88.25
2017-03-12T01:37:54.643Z,88.16
2017-03-12T01:39:04.810Z,88.25
2017-03-12T01:40:14.965Z,88.25
2017-03-12T01:41:24.697Z,88.35
2017-03-12T01:42:35.666Z,88.25
2017-03-12T01:43:45.971Z,88.25
2017-03-12T01:44:56.155Z,88.25
2017-03-12T01:46:06.717Z,88.16
2017-03-12T01:47:16.880Z,88.44
2017-03-12T01:48:26.207Z,88.44
2017-03-12T01:49:36.397Z,88.54
2017-03-12T01:50:46.540Z,88.35
2017-03-12T01:51:56.709Z,89.01
2017-03-12T01:53:06.876Z,88.92
2017-03-12T01:54:16.210Z,88.82
2017-03-12T01:55:26.943Z,89.11
2017-03-12T01:56:37.086Z,88.82
2017-03-12T01:57:47.651Z,88.92
2017-03-12T01:58:57.807Z,88.82
2017-03-12T02:00:08.794Z,88.92
2017-03-12T02:01:18.554Z,88.92
2017-03-12T02:02:28.698Z,89.58
2017-03-12T02:03:39.269Z,89.58
2017-03-12T02:04:50.251Z,89.2
2017-03-12T02:06:00.803Z,89.39
2017-03-12T02:07:12.028Z,89.48
2017-03-12T02:08:22.995Z,89.58
2017-03-12T02:09:33.549Z,89.11
2017-03-12T02:10:43.708Z,88.92
2017-03-12T02:11:54.265Z,89.29
2017-03-12T02:13:04.576Z,89.58
2017-03-12T02:14:15.130Z,89.58
2017-03-12T02:15:24.915Z,89.48
2017-03-12T02:16:35.077Z,90.15
2017-03-12T02:17:45.237Z,89.39
2017-03-12T02:18:55.955Z,89.58
2017-03-12T02:20:06.533Z,89.77
2017-03-12T02:21:16.279Z,89.48
2017-03-12T02:22:26.851Z,89.58
2017-03-12T02:23:37.824Z,89.58
2017-03-12T02:24:48.389Z,89.48
2017-03-12T02:25:58.962Z,89.58
2017-03-12T02:27:09.126Z,89.39
2017-03-12T02:28:19.696Z,90.1
2017-03-12T02:29:29.432Z,89.86
2017-03-12T02:30:40.131Z,89.96
2017-03-12T02:31:49.868Z,89.86
2017-03-12T02:32:59.615Z,89.86
2017-03-12T02:34:10.172Z,90.15
2017-03-12T02:35:20.318Z,90.15
2017-03-12T02:36:30.508Z,90.15
2017-03-12T02:37:40.270Z,89.82
2017-03-12T02:38:50.442Z,89.86
2017-03-12T02:40:01.003Z,89.82
2017-03-12T02:41:10.738Z,90.05
2017-03-12T02:42:21.505Z,89.96
2017-03-12T02:43:31.672Z,89.96
2017-03-12T02:44:41.413Z,89.86
2017-03-12T02:45:51.978Z,89.96
2017-03-12T02:47:02.562Z,90.01
2017-03-12T02:48:13.471Z,89.82
2017-03-12T02:49:24.447Z,89.72
2017-03-12T02:50:34.597Z,90.1
2017-03-12T02:51:44.736Z,90.1
2017-03-12T02:52:54.919Z,89.82
2017-03-12T02:54:05.167Z,90.01
2017-03-12T02:55:14.498Z,90.2
2017-03-12T02:56:25.059Z,90.29
2017-03-12T02:57:35.214Z,89.91
2017-03-12T02:58:45.391Z,90.2
2017-03-12T02:59:56.128Z,90.29
2017-03-12T03:01:06.689Z,89.82
2017-03-12T03:02:16.847Z,90.67
2017-03-12T03:03:26.588Z,90.1
2017-03-12T03:04:36.334Z,90.2
2017-03-12T03:05:45.397Z,90.29
2017-03-12T03:06:55.566Z,90.39
2017-03-12T03:08:05.718Z,90.58
2017-03-12T03:09:15.057Z,90.58
2017-03-12T03:10:24.810Z,90.95
2017-03-12T03:11:35.524Z,90.48
2017-03-12T03:12:46.476Z,90.77
2017-03-12T03:13:57.061Z,90.95
2017-03-12T03:15:07.624Z,90.67
2017-03-12T03:16:17.770Z,90.77
2017-03-12T03:17:27.245Z,90.95
2017-03-12T03:18:37.797Z,90.86
2017-03-12T03:19:48.352Z,90.86
2017-03-12T03:20:58.534Z,91.14
2017-03-12T03:22:09.088Z,91.14
2017-03-12T03:23:18.982Z,91.33
2017-03-12T03:24:29.130Z,91.24
2017-03-12T03:25:38.096Z,91.43
2017-03-12T03:26:48.257Z,91.81
2017-03-12T03:27:57.603Z,91.52
2017-03-12T03:29:07.084Z,91.9
2017-03-12T03:30:16.423Z,91.52
2017-03-12T03:31:26.562Z,91.52
2017-03-12T03:32:37.157Z,91.52
2017-03-12T03:33:47.724Z,91.62
2017-03-12T03:34:58.351Z,91.9
2017-03-12T03:36:08.510Z,91.9
2017-03-12T03:37:19.078Z,92.38
2017-03-12T03:38:29.230Z,92
2017-03-12T03:39:38.982Z,92.66
2017-03-12T03:40:49.790Z,92.38
2017-03-12T03:42:00.350Z,92.28
2017-03-12T03:43:10.080Z,92.38
2017-03-12T03:44:20.250Z,92.09
2017-03-12T03:45:31.222Z,92.09
2017-03-12T03:46:41.776Z,91.9
2017-03-12T03:47:52.343Z,92.28
2017-03-12T03:49:02.487Z,91.9
2017-03-12T03:50:12.634Z,92.19
2017-03-12T03:51:22.782Z,92.28
2017-03-12T03:52:33.497Z,91.81
2017-03-12T03:53:43.651Z,92.38
2017-03-12T03:54:53.795Z,92.57
2017-03-12T03:56:03.130Z,92.57
2017-03-12T03:57:12.872Z,92.38
2017-03-12T03:58:23.597Z,92.76
2017-03-12T03:59:34.168Z,92.28
2017-03-12T04:00:43.899Z,92.47
2017-03-12T04:01:53.256Z,92.85
2017-03-12T04:03:03.815Z,92.19
2017-03-12T04:04:14.442Z,92.09
2017-03-12T04:05:25.017Z,92.09
2017-03-12T04:06:35.167Z,92.28
2017-03-12T04:07:46.158Z,92.38
2017-03-12T04:08:57.116Z,92.28
2017-03-12T04:10:07.849Z,92.28
2017-03-12T04:11:18.006Z,92.28
2017-03-12T04:12:27.735Z,91.81
2017-03-12T04:13:37.472Z,92.28
2017-03-12T04:14:48.432Z,92.47
2017-03-12T04:15:59.142Z,92.66
2017-03-12T04:17:09.285Z,92
2017-03-12T04:18:19.457Z,92.66
2017-03-12T04:19:29.608Z,92.09
2017-03-12T04:20:39.748Z,92.28
2017-03-12T04:21:50.160Z,92.28
2017-03-12T04:23:00.730Z,92.19
2017-03-12T04:24:10.482Z,92.09
2017-03-12T04:25:21.073Z,92.28
2017-03-12T04:26:31.217Z,92.47
2017-03-12T04:27:42.093Z,92.28
2017-03-12T04:28:52.245Z,92.47
2017-03-12T04:30:03.203Z,92.47
2017-03-12T04:31:13.780Z,92.28
2017-03-12T04:32:23.929Z,91.81
2017-03-12T04:33:34.086Z,92.47
2017-03-12T04:34:45.051Z,92.47
2017-03-12T04:35:56.018Z,92.47
2017-03-12T04:37:06.570Z,92.09
2017-03-12T04:38:17.126Z,91.9
2017-03-12T04:39:27.345Z,92.38
2017-03-12T04:40:37.089Z,92.28
2017-03-12T04:41:47.651Z,92.57
2017-03-12T04:42:57.399Z,92.57
2017-03-12T04:44:07.534Z,92.28
2017-03-12T04:45:18.086Z,92.28
2017-03-12T04:46:28.642Z,92.09
2017-03-12T04:47:38.781Z,92.47
2017-03-12T04:48:49.337Z,92.28
2017-03-12T04:49:59.923Z,92
2017-03-12T04:51:10.313Z,92.19
2017-03-12T04:52:20.873Z,92.47
2017-03-12T04:53:31.042Z,92.47
2017-03-12T04:54:42.003Z,92.09
2017-03-12T04:55:52.557Z,92.66
2017-03-12T04:57:02.851Z,91.71
2017-03-12T04:58:13.412Z,92
2017-03-12T04:59:23.980Z,91.81
2017-03-12T05:00:34.129Z,91.9
2017-03-12T05:01:44.286Z,91.9
2017-03-12T05:02:55.102Z,92.47
2017-03-12T05:04:05.258Z,92.38
2017-03-12T05:05:15.000Z,91.9
2017-03-12T05:06:25.156Z,92.09
2017-03-12T05:07:36.122Z,92.47
2017-03-12T05:08:46.534Z,91.9
2017-03-12T05:09:57.087Z,91.9
2017-03-12T05:11:07.256Z,91.9
2017-03-12T05:12:17.872Z,91.71
2017-03-12T05:13:28.455Z,91.71
2017-03-12T05:14:39.158Z,91.9
2017-03-12T05:15:49.721Z,92.28
2017-03-12T05:16:59.468Z,92.66
2017-03-12T05:18:10.042Z,92.47
2017-03-12T05:19:20.600Z,92.47
2017-03-12T05:20:31.464Z,92.19
2017-03-12T05:21:41.619Z,91.9
2017-03-12T05:22:51.374Z,92.47
2017-03-12T05:24:01.516Z,92.47
2017-03-12T05:25:11.271Z,92.47
2017-03-12T05:26:21.190Z,92.09
2017-03-12T05:27:31.766Z,92.09
2017-03-12T05:28:42.324Z,92.57
2017-03-12T05:29:53.313Z,92.28
2017-03-12T05:31:03.888Z,92.76
2017-03-12T05:32:13.883Z,92.66
2017-03-12T05:33:24.433Z,92.76
2017-03-12T05:34:35.062Z,92.66
2017-03-12T05:35:45.616Z,92.61
2017-03-12T05:36:56.592Z,92.61
2017-03-12T05:38:06.792Z,92.9
2017-03-12T05:39:16.971Z,92.24
2017-03-12T05:40:27.139Z,92.99
2017-03-12T05:41:37.277Z,92.99
2017-03-12T05:42:47.424Z,92.9
2017-03-12T05:43:58.137Z,93.08
2017-03-12T05:45:07.870Z,93.08
2017-03-12T05:46:17.615Z,93.13
2017-03-12T05:47:27.373Z,93.04
2017-03-12T05:48:37.968Z,93.56
2017-03-12T05:49:48.778Z,93.65
2017-03-12T05:50:58.951Z,93.27
2017-03-12T05:52:09.096Z,93.37
2017-03-12T05:53:18.837Z,93.46
2017-03-12T05:54:28.602Z,93.46
2017-03-12T05:55:38.914Z,93.37
2017-03-12T05:56:49.485Z,93.56
2017-03-12T05:57:59.640Z,93.46
2017-03-12T05:59:10.234Z,93.37
2017-03-12T06:00:20.791Z,93.65
2017-03-12T06:01:30.698Z,93.08
2017-03-12T06:02:41.258Z,93.56
2017-03-12T06:03:51.838Z,93.18
2017-03-12T06:05:02.020Z,93.75
2017-03-12T06:06:12.197Z,93.65
2017-03-12T06:07:22.019Z,94.04
2017-03-12T06:08:32.586Z,94.04
2017-03-12T06:09:42.399Z,93.84
2017-03-12T06:10:51.732Z,93.75
2017-03-12T06:12:02.307Z,93.94
2017-03-12T06:13:12.039Z,93.75
2017-03-12T06:14:22.210Z,93.65
2017-03-12T06:15:32.057Z,93.94
2017-03-12T06:16:42.531Z,93.75
2017-03-12T06:17:53.356Z,93.75
2017-03-12T06:19:03.855Z,94.04
2017-03-12T06:20:13.277Z,94.04
2017-03-12T06:21:23.835Z,94.04
2017-03-12T06:22:33.583Z,93.75
2017-03-12T06:23:44.561Z,93.75
2017-03-12T06:24:53.929Z,94.13
2017-03-12T06:26:04.491Z,93.75
2017-03-12T06:27:14.223Z,93.94
2017-03-12T06:28:24.401Z,93.94
2017-03-12T06:29:34.538Z,93.94
2017-03-12T06:30:45.521Z,94.42
2017-03-12T06:31:56.079Z,94.04
2017-03-12T06:33:05.441Z,93.84
2017-03-12T06:34:15.989Z,93.42
2017-03-12T06:35:26.544Z,93.23
2017-03-12T06:36:36.683Z,93.42
2017-03-12T06:37:46.840Z,93.51
2017-03-12T06:38:57.391Z,93.61
2017-03-12T06:40:07.957Z,93.61
2017-03-12T06:41:18.098Z,93.7
2017-03-12T06:42:27.840Z,93.32
2017-03-12T06:43:38.385Z,93.61
2017-03-12T06:44:48.526Z,93.13
2017-03-12T06:45:59.507Z,92.76
2017-03-12T06:47:09.666Z,92.94
2017-03-12T06:48:19.812Z,92.94
2017-03-12T06:49:30.388Z,92.94
2017-03-12T06:50:40.541Z,92.76
2017-03-12T06:51:50.282Z,92.66
2017-03-12T06:53:00.847Z,92.76
2017-03-12T06:54:10.196Z,92.76
2017-03-12T06:55:20.673Z,92.76
2017-03-12T06:56:30.823Z,92.57
2017-03-12T06:57:41.392Z,92.28
2017-03-12T06:58:51.958Z,92.19
2017-03-12T07:00:02.116Z,92.09
2017-03-12T07:01:12.687Z,92.19
2017-03-12T07:02:23.647Z,92.09
2017-03-12T07:03:34.240Z,91.81
2017-03-12T07:04:44.806Z,92.09
2017-03-12T07:05:55.400Z,92
2017-03-12T07:07:05.949Z,92.38
2017-03-12T07:08:16.104Z,92.28
2017-03-12T07:09:27.068Z,92.38
2017-03-12T07:10:38.054Z,92.47
2017-03-12T07:11:48.199Z,92.19
2017-03-12T07:12:58.762Z,92.47
2017-03-12T07:14:09.349Z,92.28
2017-03-12T07:15:19.960Z,92.57
2017-03-12T07:16:29.697Z,92.28
2017-03-12T07:17:39.845Z,91.81
2017-03-12T07:18:49.985Z,92.09
2017-03-12T07:20:00.124Z,92.47
2017-03-12T07:21:10.524Z,91.9
2017-03-12T07:22:20.672Z,91.81
2017-03-12T07:23:30.427Z,92
2017-03-12T07:24:41.008Z,92.47
2017-03-12T07:25:51.159Z,92.38
2017-03-12T07:27:02.381Z,91.62
2017-03-12T07:28:12.128Z,91.62
2017-03-12T07:29:22.682Z,91.81
2017-03-12T07:30:32.415Z,91.9
2017-03-12T07:31:43.000Z,91.9
2017-03-12T07:32:52.883Z,91.81
2017-03-12T07:34:03.443Z,91.9
2017-03-12T07:35:14.061Z,91.57
2017-03-12T07:36:24.223Z,91.33
2017-03-12T07:37:34.370Z,91.52
2017-03-12T07:38:45.071Z,91.43
2017-03-12T07:39:55.234Z,91.19
2017-03-12T07:41:05.388Z,91.28
2017-03-12T07:42:15.133Z,91.47
2017-03-12T07:43:25.685Z,91.09
2017-03-12T07:44:35.998Z,91.09
2017-03-12T07:45:46.559Z,91
2017-03-12T07:46:56.731Z,90.91
2017-03-12T07:48:07.099Z,90.53
2017-03-12T07:49:17.651Z,90.81
2017-03-12T07:50:27.966Z,90.62
2017-03-12T07:51:38.136Z,90.24
2017-03-12T07:52:48.690Z,90.62
2017-03-12T07:53:59.272Z,90.24
2017-03-12T07:55:09.855Z,89.67
2017-03-12T07:56:20.144Z,89.58
2017-03-12T07:57:29.471Z,89.48
2017-03-12T07:58:40.052Z,89.48
2017-03-12T07:59:50.202Z,89.48
2017-03-12T08:01:00.356Z,89.29
2017-03-12T08:02:10.653Z,88.82
2017-03-12T08:03:21.244Z,89.11
2017-03-12T08:04:31.816Z,88.92
2017-03-12T08:05:42.777Z,88.82
2017-03-12T08:06:52.529Z,88.92
2017-03-12T08:08:02.840Z,89.15
2017-03-12T08:09:13.400Z,88.58
2017-03-12T08:10:23.163Z,88.39
2017-03-12T08:11:33.787Z,88.2
2017-03-12T08:12:43.976Z,87.92
2017-03-12T08:13:54.329Z,88.39
2017-03-12T08:15:04.906Z,88.1
2017-03-12T08:16:14.654Z,87.82
2017-03-12T08:17:25.235Z,87.73
2017-03-12T08:18:35.383Z,88.29
2017-03-12T08:19:45.178Z,88.2
2017-03-12T08:20:54.914Z,87.25
2017-03-12T08:22:05.111Z,87.25
2017-03-12T08:23:14.457Z,87.25
2017-03-12T08:24:24.596Z,87.25
2017-03-12T08:25:34.135Z,87.25
2017-03-12T08:26:43.891Z,87.16
2017-03-12T08:27:54.059Z,87.16
2017-03-12T08:29:04.204Z,87.45
2017-03-12T08:30:14.369Z,86.3
2017-03-12T08:31:24.262Z,86.3
2017-03-12T08:32:34.012Z,85.93
2017-03-12T08:33:44.589Z,86.02
2017-03-12T08:34:54.748Z,86.11
2017-03-12T08:36:04.919Z,86.11
2017-03-12T08:37:15.626Z,85.59
2017-03-12T08:38:25.357Z,85.49
2017-03-12T08:39:35.908Z,85.36
2017-03-12T08:40:46.078Z,84.98
2017-03-12T08:41:56.241Z,85.11
2017-03-12T08:43:05.726Z,84.92
2017-03-12T08:44:15.887Z,84.07
2017-03-12T08:45:25.637Z,84.17
2017-03-12T08:46:35.382Z,83.97
2017-03-12T08:47:45.169Z,83.97
2017-03-12T08:48:56.246Z,83.4
2017-03-12T08:50:06.411Z,83.22
2017-03-12T08:51:16.173Z,83.03
2017-03-12T08:52:25.943Z,82.93
2017-03-12T08:53:36.097Z,82.27
2017-03-12T08:54:46.423Z,81.88
2017-03-12T08:55:56.188Z,81.98
2017-03-12T08:57:05.941Z,81.6
2017-03-12T08:58:15.718Z,81.6
2017-03-12T08:59:26.280Z,81.88
2017-03-12T09:00:36.421Z,82.17
2017-03-12T09:01:45.756Z,81.7
2017-03-12T09:02:55.491Z,81.23
2017-03-12T09:04:05.633Z,81.13
2017-03-12T09:05:16.619Z,81.32
2017-03-12T09:06:27.121Z,81.23
2017-03-12T09:07:36.453Z,81.04
2017-03-12T09:08:47.016Z,81.41
2017-03-12T09:09:57.162Z,81.36
2017-03-12T09:11:07.314Z,81.36
2017-03-12T09:12:17.200Z,80.98
2017-03-12T09:13:26.961Z,81.26
2017-03-12T09:14:37.121Z,81.07
2017-03-12T09:15:47.678Z,81.36
2017-03-12T09:16:56.594Z,80.32
2017-03-12T09:18:06.493Z,80.88
2017-03-12T09:19:16.638Z,79.94
2017-03-12T09:20:26.399Z,80.6
2017-03-12T09:21:36.199Z,79.17
2017-03-12T09:22:45.971Z,78.61
2017-03-12T09:23:56.287Z,78.61
2017-03-12T09:25:06.854Z,78.42
2017-03-12T09:26:17.414Z,78.7
2017-03-12T09:27:26.766Z,77.84
2017-03-12T09:28:36.926Z,78.13
2017-03-12T09:29:46.406Z,77.75
2017-03-12T09:30:56.974Z,77.75
2017-03-12T09:32:07.133Z,77.37
2017-03-12T09:33:16.476Z,77.6
2017-03-12T09:34:25.803Z,77.22
2017-03-12T09:35:35.660Z,76.84
2017-03-12T09:36:45.416Z,77.03
2017-03-12T09:37:56.003Z,76.75
2017-03-12T09:39:06.154Z,76.65
2017-03-12T09:40:15.082Z,76.27
2017-03-12T09:41:24.727Z,75.99
2017-03-12T09:42:34.475Z,76.18
2017-03-12T09:43:44.214Z,76.46
2017-03-12T09:44:54.353Z,75.42
2017-03-12T09:46:04.101Z,74.85
2017-03-12T09:47:13.986Z,74.37
2017-03-12T09:48:24.549Z,74.37
2017-03-12T09:49:34.306Z,73.46
2017-03-12T09:50:44.472Z,73.18
2017-03-12T09:51:55.024Z,72.99
2017-03-12T09:53:05.733Z,72.51
2017-03-12T09:54:16.295Z,72.41
2017-03-12T09:55:26.444Z,72.51
2017-03-12T09:56:36.194Z,72.32
2017-03-12T09:57:46.366Z,71.94
2017-03-12T09:58:56.576Z,71.84
2017-03-12T10:00:06.751Z,72.03
2017-03-12T10:01:17.298Z,71.84
2017-03-12T10:02:26.638Z,71.46
2017-03-12T10:03:36.379Z,71.59
2017-03-12T10:04:45.875Z,70.64
2017-03-12T10:05:56.434Z,69.79
2017-03-12T10:07:06.188Z,69.21
2017-03-12T10:08:15.554Z,69.6
2017-03-12T10:09:26.115Z,69.21
2017-03-12T10:10:36.420Z,69.12
2017-03-12T10:11:46.188Z,67.69
2017-03-12T10:12:55.112Z,68.17
2017-03-12T10:14:05.256Z,67.79
2017-03-12T10:15:16.230Z,68.27
2017-03-12T10:16:25.743Z,67.6
2017-03-12T10:17:36.313Z,67.69
2017-03-12T10:18:46.054Z,67.6
2017-03-12T10:19:56.630Z,67.41
2017-03-12T10:21:06.768Z,67.22
2017-03-12T10:22:16.015Z,67.22
2017-03-12T10:23:26.163Z,67.13
2017-03-12T10:24:36.321Z,67.22
2017-03-12T10:25:45.644Z,67.5
2017-03-12T10:26:56.189Z,67.69
2017-03-12T10:28:05.686Z,67.5
2017-03-12T10:29:15.826Z,67.25
2017-03-12T10:30:26.402Z,67.07
2017-03-12T10:31:35.327Z,66.3
2017-03-12T10:32:45.070Z,66.39
2017-03-12T10:33:54.544Z,66.59
2017-03-12T10:35:03.877Z,66.2
2017-03-12T10:36:13.616Z,66.87
2017-03-12T10:37:23.359Z,66.59
2017-03-12T10:38:33.525Z,65.83
2017-03-12T10:39:43.657Z,66.02
2017-03-12T10:40:52.990Z,66.59
2017-03-12T10:42:02.349Z,66.97
2017-03-12T10:43:11.694Z,66.11
2017-03-12T10:44:20.625Z,65.83
2017-03-12T10:45:30.514Z,65.54
2017-03-12T10:46:40.688Z,65.45
2017-03-12T10:47:50.444Z,65.64
2017-03-12T10:49:00.208Z,65.83
2017-03-12T10:50:09.956Z,65.35
2017-03-12T10:51:20.161Z,65.45
2017-03-12T10:52:29.502Z,64.87
2017-03-12T10:53:39.639Z,64.97
2017-03-12T10:54:50.207Z,64.87
2017-03-12T10:56:00.355Z,64.69
2017-03-12T10:57:10.344Z,64.78
2017-03-12T10:58:20.094Z,64.11
2017-03-12T10:59:29.852Z,63.73
2017-03-12T11:00:40.018Z,63.64
2017-03-12T11:01:50.184Z,63.67
2017-03-12T11:03:00.448Z,63.57
2017-03-12T11:04:09.806Z,64.21
2017-03-12T11:05:18.772Z,64.53
2017-03-12T11:06:28.516Z,64.72
2017-03-12T11:07:38.668Z,63.76
2017-03-12T11:08:47.580Z,63.39
2017-03-12T11:09:57.745Z,63.39
2017-03-12T11:11:07.511Z,63.39
2017-03-12T11:12:17.666Z,62.24
2017-03-12T11:13:27.824Z,63.2
2017-03-12T11:14:38.154Z,62.62
2017-03-12T11:15:48.314Z,62.81
2017-03-12T11:16:57.688Z,62.15
2017-03-12T11:18:07.465Z,62.24
2017-03-12T11:19:17.641Z,62.05
2017-03-12T11:20:28.046Z,61.1
2017-03-12T11:21:37.785Z,61.77
2017-03-12T11:22:47.945Z,61.48
2017-03-12T11:23:58.111Z,62.43
2017-03-12T11:25:07.856Z,61.77
2017-03-12T11:26:18.317Z,61.29
2017-03-12T11:27:28.461Z,61.38
2017-03-12T11:28:39.032Z,61.77
2017-03-12T11:29:48.807Z,61.51
2017-03-12T11:30:58.570Z,61.13
2017-03-12T11:32:08.525Z,61.32
2017-03-12T11:33:18.295Z,61.96
2017-03-12T11:34:28.459Z,60.66
2017-03-12T11:35:38.636Z,60.56
2017-03-12T11:36:48.800Z,59.89
2017-03-12T11:37:58.682Z,60.08
2017-03-12T11:39:08.842Z,60.75
2017-03-12T11:40:19.014Z,61.32
2017-03-12T11:41:29.598Z,60.94
2017-03-12T11:42:39.403Z,61.22
2017-03-12T11:43:49.806Z,60.85
2017-03-12T11:44:59.558Z,60.94
2017-03-12T11:46:09.336Z,61.04
2017-03-12T11:47:19.893Z,60.75
2017-03-12T11:48:28.821Z,59.8
2017-03-12T11:49:37.996Z,58.56
2017-03-12T11:50:47.366Z,58.94
2017-03-12T11:51:56.297Z,58.75
2017-03-12T11:53:06.069Z,58.94
2017-03-12T11:54:15.406Z,58.94
2017-03-12T11:55:25.736Z,59.03
2017-03-12T11:56:35.892Z,59.23
2017-03-12T11:57:46.056Z,59.32
2017-03-12T11:58:56.699Z,59.51
2017-03-12T12:00:06.866Z,58.37
2017-03-12T12:01:17.579Z,58.56
2017-03-12T12:02:27.331Z,58.18
2017-03-12T12:03:37.492Z,57.99
2017-03-12T12:04:47.247Z,58.65
2017-03-12T12:05:57.427Z,58.65
2017-03-12T12:07:08.023Z,58.02
2017-03-12T12:08:19.013Z,58.08
2017-03-12T12:09:28.766Z,58.65
2017-03-12T12:10:39.341Z,58.21
2017-03-12T12:11:49.935Z,57.35
2017-03-12T12:13:00.246Z,57.07
2017-03-12T12:14:09.991Z,57.82
2017-03-12T12:15:19.743Z,58.59
2017-03-12T12:16:29.920Z,58.59
2017-03-12T12:17:39.261Z,57.54
2017-03-12T12:18:49.428Z,56.11
2017-03-12T12:19:59.604Z,55.54
2017-03-12T12:21:10.177Z,55.83
2017-03-12T12:22:21.172Z,56.52
2017-03-12T12:23:30.534Z,56.21
2017-03-12T12:24:40.723Z,56.24
2017-03-12T12:25:50.907Z,56.33
2017-03-12T12:27:01.479Z,56.62
2017-03-12T12:28:11.223Z,56.52
2017-03-12T12:29:21.394Z,56.71
2017-03-12T12:30:31.600Z,56.71
2017-03-12T12:31:41.771Z,55.95
2017-03-12T12:32:52.358Z,55.19
2017-03-12T12:34:02.537Z,54.71
2017-03-12T12:35:12.279Z,55
2017-03-12T12:36:21.765Z,55.47
2017-03-12T12:37:31.939Z,54.71
2017-03-12T12:38:42.527Z,54.71
2017-03-12T12:39:53.110Z,55.85
2017-03-12T12:41:03.290Z,54.24
2017-03-12T12:42:13.851Z,55
2017-03-12T12:43:23.609Z,54.43
2017-03-12T12:44:32.947Z,54.52
2017-03-12T12:45:42.706Z,55
2017-03-12T12:46:53.277Z,55
2017-03-12T12:48:04.027Z,54.61
2017-03-12T12:49:14.186Z,54.9
2017-03-12T12:50:24.770Z,54.8
2017-03-12T12:51:34.518Z,54.93
2017-03-12T12:52:45.077Z,54.45
2017-03-12T12:53:56.229Z,52.83
2017-03-12T12:55:06.408Z,53.21
2017-03-12T12:56:16.986Z,53.5
2017-03-12T12:57:27.574Z,53.41
2017-03-12T12:58:37.972Z,53.88
2017-03-12T12:59:48.620Z,53.69
2017-03-12T13:00:58.749Z,53.31
2017-03-12T13:02:09.324Z,52.73
2017-03-12T13:03:20.323Z,52.83
2017-03-12T13:04:30.507Z,52.64
2017-03-12T13:05:40.838Z,52.9
2017-03-12T13:06:51.431Z,52.92
2017-03-12T13:08:01.992Z,53.85
2017-03-12T13:09:12.571Z,54.55
2017-03-12T13:10:23.149Z,54.55
2017-03-12T13:11:33.901Z,53.31
2017-03-12T13:12:44.478Z,54.45
2017-03-12T13:13:55.076Z,54.64
2017-03-12T13:15:04.851Z,54.83
2017-03-12T13:16:15.027Z,54.93
2017-03-12T13:17:24.846Z,55.69
2017-03-12T13:18:35.004Z,56.46
2017-03-12T13:19:45.186Z,56.55
2017-03-12T13:20:55.383Z,56.17
2017-03-12T13:22:05.146Z,55.79
2017-03-12T13:23:15.491Z,54.45
2017-03-12T13:24:26.062Z,55.69
2017-03-12T13:25:37.044Z,55.31
2017-03-12T13:26:47.640Z,54.55
2017-03-12T13:27:57.792Z,54.55
2017-03-12T13:29:07.687Z,54.55
2017-03-12T13:30:17.871Z,54.86
2017-03-12T13:31:28.443Z,55.62
2017-03-12T13:32:39.015Z,53.81
2017-03-12T13:33:49.177Z,54.57
2017-03-12T13:34:59.082Z,53.05
2017-03-12T13:36:09.233Z,52.83
2017-03-12T13:37:18.174Z,52.83
2017-03-12T13:38:28.364Z,53.21
2017-03-12T13:39:38.545Z,51.5
2017-03-12T13:40:49.186Z,51.31
2017-03-12T13:41:59.339Z,51.97
2017-03-12T13:43:09.512Z,51.21
2017-03-12T13:44:19.670Z,51.31
2017-03-12T13:45:29.461Z,51.21
2017-03-12T13:46:40.561Z,51.5
2017-03-12T13:47:51.127Z,51.78
2017-03-12T13:49:00.481Z,51.31
2017-03-12T13:50:10.297Z,52.07
2017-03-12T13:51:19.661Z,52.36
2017-03-12T13:52:29.034Z,51.68
2017-03-12T13:53:38.818Z,52.28
2017-03-12T13:54:49.422Z,52.09
2017-03-12T13:55:59.999Z,51.71
2017-03-12T13:57:10.152Z,52
2017-03-12T13:58:19.970Z,52.09
2017-03-12T13:59:30.553Z,51.52
2017-03-12T14:00:41.118Z,51.31
2017-03-12T14:01:52.209Z,52.16
2017-03-12T14:03:03.425Z,52.36
2017-03-12T14:04:13.965Z,51.81
2017-03-12T14:05:24.553Z,51.62
2017-03-12T14:06:35.125Z,51.52
2017-03-12T14:07:46.110Z,51.9
2017-03-12T14:08:55.869Z,51.52
2017-03-12T14:10:06.548Z,52.57
2017-03-12T14:11:16.710Z,52.76
2017-03-12T14:12:27.313Z,53.5
2017-03-12T14:13:37.125Z,52.86
2017-03-12T14:14:47.300Z,51.52
2017-03-12T14:15:57.876Z,50.76
2017-03-12T14:17:07.240Z,50.95
2017-03-12T14:18:17.828Z,51.62
2017-03-12T14:19:28.431Z,51.23
2017-03-12T14:20:38.618Z,51.26
2017-03-12T14:21:48.519Z,50.57
2017-03-12T14:22:58.677Z,50.76
2017-03-12T14:24:07.617Z,50.98
2017-03-12T14:25:17.361Z,51.52
2017-03-12T14:26:27.127Z,50.57
2017-03-12T14:27:37.713Z,50.59
2017-03-12T14:28:48.303Z,51.43
2017-03-12T14:29:58.528Z,51.14
2017-03-12T14:31:08.705Z,51.52
2017-03-12T14:32:18.473Z,51.52
2017-03-12T14:33:28.739Z,51.52
2017-03-12T14:34:38.085Z,51.64
2017-03-12T14:35:48.668Z,50.69
2017-03-12T14:36:59.259Z,51.17
2017-03-12T14:38:09.045Z,50.88
2017-03-12T14:39:19.473Z,49.83
2017-03-12T14:40:29.265Z,50.02
2017-03-12T14:41:38.638Z,49.73
2017-03-12T14:42:49.232Z,47.82
2017-03-12T14:43:59.434Z,47.08
2017-03-12T14:45:09.778Z,46.7
2017-03-12T14:46:20.353Z,46.89
2017-03-12T14:47:30.106Z,48.21
2017-03-12T14:48:39.477Z,48.68
2017-03-12T14:49:50.041Z,49.16
2017-03-12T14:51:00.461Z,48.39
2017-03-12T14:52:10.230Z,48.59
2017-03-12T14:53:21.249Z,49.13
2017-03-12T14:54:31.007Z,48.28
2017-03-12T14:55:41.172Z,48.75
2017-03-12T14:56:51.384Z,48.75
2017-03-12T14:58:02.381Z,49.13
2017-03-12T14:59:12.155Z,49.99
2017-03-12T15:00:22.330Z,50.83
2017-03-12T15:01:32.910Z,50.67
2017-03-12T15:02:43.670Z,49.99
2017-03-12T15:03:53.834Z,49.9
2017-03-12T15:05:02.773Z,49.42
2017-03-12T15:06:12.557Z,49.42
2017-03-12T15:07:22.728Z,49.68
2017-03-12T15:08:33.009Z,49.78